createdAt,value
2023-04-16T00:02:16.790Z,3.47
2023-04-16T00:04:44.978Z,2.67
2023-04-16T00:07:13.060Z,2.57
2023-04-16T00:09:42.365Z,3.00
2023-04-16T00:12:10.343Z,2.87
2023-04-16T00:14:38.276Z,2.40
2023-04-16T00:17:06.282Z,2.50
2023-04-16T00:19:34.357Z,2.63
2023-04-16T00:22:02.605Z,2.30
2023-04-16T00:24:30.553Z,2.60
2023-04-16T00:26:59.806Z,2.70
2023-04-16T00:29:28.768Z,3.00
2023-04-16T00:31:56.765Z,3.03
2023-04-16T00:34:24.684Z,2.50
2023-04-16T00:36:52.595Z,2.50
2023-04-16T00:39:20.600Z,2.40
2023-04-16T00:41:49.254Z,2.73
2023-04-16T00:44:18.545Z,2.80
2023-04-16T00:46:47.328Z,3.07
2023-04-16T00:49:15.753Z,2.30
2023-04-16T00:51:43.840Z,2.93
2023-04-16T00:54:11.881Z,3.00
2023-04-16T00:56:40.905Z,3.20
2023-04-16T00:59:09.809Z,2.87
2023-04-16T01:01:39.406Z,3.10
2023-04-16T01:04:08.168Z,2.93
2023-04-16T01:06:36.354Z,3.20
2023-04-16T01:09:04.440Z,2.77
2023-04-16T01:11:32.650Z,3.27
2023-04-16T01:14:00.640Z,3.00
2023-04-16T01:16:28.598Z,3.40
2023-04-16T01:18:57.917Z,4.03
2023-04-16T01:21:27.454Z,3.80
2023-04-16T01:23:55.558Z,3.20
2023-04-16T01:26:23.471Z,3.70
2023-04-16T01:28:51.398Z,3.80
2023-04-16T01:31:19.414Z,3.47
2023-04-16T01:33:47.356Z,3.67
2023-04-16T01:36:15.376Z,4.30
2023-04-16T01:38:44.762Z,3.90
2023-04-16T01:41:12.620Z,4.00
2023-04-16T01:43:41.285Z,3.60
2023-04-16T01:46:16.306Z,4.50
2023-04-16T01:48:44.340Z,3.60
2023-04-16T01:51:12.268Z,5.47
2023-04-16T01:53:40.440Z,4.60
2023-04-16T01:56:09.859Z,4.37
2023-04-16T01:58:38.499Z,5.83
2023-04-16T02:01:06.835Z,5.60
2023-04-16T02:03:35.228Z,5.77
2023-04-16T02:06:03.344Z,5.60
2023-04-16T02:08:31.217Z,5.87
2023-04-16T02:10:59.600Z,6.00
2023-04-16T02:13:29.020Z,6.53
2023-04-16T02:15:58.869Z,7.03
2023-04-16T02:18:26.900Z,6.23
2023-04-16T02:20:54.948Z,6.37
2023-04-16T02:23:22.828Z,5.50
2023-04-16T02:25:50.766Z,5.00
2023-04-16T02:28:18.789Z,5.77
2023-04-16T02:30:48.148Z,5.33
2023-04-16T02:33:16.340Z,5.07
2023-04-16T02:35:44.340Z,5.50
2023-04-16T02:38:12.220Z,5.40
2023-04-16T02:40:40.159Z,5.70
2023-04-16T02:43:08.166Z,5.43
2023-04-16T02:45:36.172Z,5.83
2023-04-16T02:48:07.269Z,5.87
2023-04-16T02:50:35.229Z,5.03
2023-04-16T02:53:04.068Z,6.07
2023-04-16T02:55:32.028Z,5.70
2023-04-16T02:57:59.935Z,5.83
2023-04-16T03:00:27.818Z,5.97
2023-04-16T03:02:56.043Z,5.67
2023-04-16T03:05:25.563Z,6.20
2023-04-16T03:07:56.697Z,6.03
2023-04-16T03:10:24.993Z,5.90
2023-04-16T03:12:52.930Z,5.57
2023-04-16T03:15:20.924Z,6.93
2023-04-16T03:17:48.946Z,6.23
2023-04-16T03:20:17.255Z,6.00
2023-04-16T03:22:46.989Z,5.93
2023-04-16T03:25:15.063Z,6.40
2023-04-16T03:27:43.191Z,6.30
2023-04-16T03:30:12.805Z,6.23
2023-04-16T03:32:41.564Z,6.03
2023-04-16T03:35:10.693Z,6.63
2023-04-16T03:37:38.689Z,6.17
2023-04-16T03:40:09.232Z,6.70
2023-04-16T03:42:37.263Z,6.90
2023-04-16T03:45:05.796Z,7.43
2023-04-16T03:47:33.799Z,6.80
2023-04-16T03:50:01.879Z,6.67
2023-04-16T03:52:29.889Z,7.17
2023-04-16T03:54:57.853Z,6.13
2023-04-16T03:57:27.148Z,6.70
2023-04-16T03:59:55.109Z,6.23
2023-04-16T04:02:23.235Z,6.80
2023-04-16T04:04:51.389Z,7.07
2023-04-16T04:07:19.385Z,5.67
2023-04-16T04:09:47.459Z,5.97
2023-04-16T04:12:15.434Z,6.63
2023-04-16T04:14:44.774Z,6.60
2023-04-16T04:17:12.764Z,6.23
2023-04-16T04:19:47.216Z,7.00
2023-04-16T04:22:22.478Z,7.07
2023-04-16T04:24:50.485Z,6.27
2023-04-16T04:27:18.478Z,6.70
2023-04-16T04:29:47.701Z,5.90
2023-04-16T04:32:15.654Z,6.30
2023-04-16T04:34:43.614Z,6.00
2023-04-16T04:37:11.541Z,6.27
2023-04-16T04:39:39.397Z,6.80
2023-04-16T04:42:07.348Z,5.77
2023-04-16T04:44:35.504Z,6.00
2023-04-16T04:47:04.792Z,6.37
2023-04-16T04:49:33.451Z,6.73
2023-04-16T04:52:02.080Z,6.60
2023-04-16T04:54:30.325Z,6.20
2023-04-16T04:56:58.352Z,7.17
2023-04-16T04:59:26.611Z,6.40
2023-04-16T05:01:54.602Z,5.67
2023-04-16T05:04:23.971Z,5.83
2023-04-16T05:06:52.035Z,6.30
2023-04-16T05:09:20.050Z,6.90
2023-04-16T05:11:47.953Z,6.80
2023-04-16T05:14:15.915Z,7.13
2023-04-16T05:16:43.933Z,7.13
2023-04-16T05:19:12.032Z,7.43
2023-04-16T05:21:41.528Z,6.97
2023-04-16T05:24:09.458Z,6.93
2023-04-16T05:26:37.379Z,8.30
2023-04-16T05:29:05.446Z,7.43
2023-04-16T05:31:33.452Z,7.27
2023-04-16T05:34:01.431Z,7.67
2023-04-16T05:36:29.344Z,6.93
2023-04-16T05:38:58.656Z,7.77
2023-04-16T05:41:26.730Z,7.57
2023-04-16T05:43:54.679Z,7.57
2023-04-16T05:46:22.597Z,7.10
2023-04-16T05:48:50.683Z,7.43
2023-04-16T05:51:18.613Z,7.60
2023-04-16T05:53:46.506Z,8.10
2023-04-16T05:56:15.878Z,7.50
2023-04-16T05:58:43.863Z,8.47
2023-04-16T06:01:12.518Z,8.97
2023-04-16T06:03:40.780Z,9.53
2023-04-16T06:06:08.947Z,9.20
2023-04-16T06:08:36.895Z,9.60
2023-04-16T06:11:05.339Z,9.80
2023-04-16T06:13:34.684Z,9.30
2023-04-16T06:16:02.697Z,9.33
2023-04-16T06:18:30.689Z,9.60
2023-04-16T06:20:58.863Z,8.53
2023-04-16T06:23:26.789Z,8.13
2023-04-16T06:25:54.692Z,8.77
2023-04-16T06:28:22.782Z,8.10
2023-04-16T06:30:52.025Z,7.93
2023-04-16T06:33:20.044Z,7.43
2023-04-16T06:35:47.959Z,7.70
2023-04-16T06:38:15.880Z,8.33
2023-04-16T06:40:43.872Z,7.70
2023-04-16T06:43:12.259Z,7.23
2023-04-16T06:45:40.214Z,7.50
2023-04-16T06:48:09.611Z,7.70
2023-04-16T06:50:37.638Z,7.27
2023-04-16T06:53:05.662Z,6.07
2023-04-16T06:55:33.586Z,6.70
2023-04-16T06:58:01.555Z,5.50
2023-04-16T07:00:29.548Z,5.07
2023-04-16T07:02:58.755Z,5.30
2023-04-16T07:05:28.215Z,5.33
2023-04-16T07:07:57.509Z,5.13
2023-04-16T07:10:25.595Z,4.80
2023-04-16T07:12:53.736Z,4.77
2023-04-16T07:15:21.721Z,5.43
2023-04-16T07:17:49.744Z,4.87
2023-04-16T07:20:17.814Z,4.17
2023-04-16T07:22:47.208Z,3.80
2023-04-16T07:25:15.261Z,3.77
2023-04-16T07:27:43.241Z,3.83
2023-04-16T07:30:11.873Z,3.70
2023-04-16T07:32:39.868Z,3.73
2023-04-16T07:35:08.524Z,3.77
2023-04-16T07:37:36.495Z,3.40
2023-04-16T07:40:06.903Z,3.27
2023-04-16T07:42:34.845Z,3.10
2023-04-16T07:45:02.771Z,3.80
2023-04-16T07:47:30.749Z,3.50
2023-04-16T07:49:58.751Z,3.60
2023-04-16T07:52:26.737Z,3.40
2023-04-16T07:54:54.697Z,3.30
2023-04-16T07:57:23.996Z,3.10
2023-04-16T07:59:52.021Z,3.07
2023-04-16T08:02:20.388Z,3.63
2023-04-16T08:04:48.490Z,2.70
2023-04-16T08:07:16.566Z,2.70
2023-04-16T08:09:53.015Z,2.77
2023-04-16T08:12:21.228Z,3.27
2023-04-16T08:14:50.721Z,2.50
2023-04-16T08:17:18.871Z,2.90
2023-04-16T08:19:46.845Z,2.40
2023-04-16T08:22:15.371Z,2.50
2023-04-16T08:24:43.612Z,2.63
2023-04-16T08:27:18.565Z,2.90
2023-04-16T08:29:47.689Z,2.70
2023-04-16T08:32:16.986Z,2.80
2023-04-16T08:34:44.958Z,3.07
2023-04-16T08:37:12.950Z,2.80
2023-04-16T08:39:41.354Z,3.10
2023-04-16T08:42:19.856Z,2.80
2023-04-16T08:44:50.460Z,2.67
2023-04-16T08:47:23.596Z,2.40
2023-04-16T08:49:52.935Z,2.80
2023-04-16T08:52:22.182Z,2.90
2023-04-16T08:54:59.363Z,3.17
2023-04-16T08:57:38.106Z,3.27
2023-04-16T09:00:09.790Z,3.60
2023-04-16T09:02:40.057Z,3.83
2023-04-16T09:05:10.639Z,3.27
2023-04-16T09:07:39.701Z,3.90
2023-04-16T09:10:09.325Z,4.50
2023-04-16T09:12:37.221Z,4.73
2023-04-16T09:15:07.068Z,4.87
2023-04-16T09:17:35.825Z,5.20
2023-04-16T09:20:08.607Z,5.00
2023-04-16T09:22:36.764Z,6.23
2023-04-16T09:25:05.148Z,7.13
2023-04-16T09:27:33.191Z,7.73
2023-04-16T09:30:01.109Z,7.50
2023-04-16T09:32:29.926Z,7.77
2023-04-16T09:35:00.686Z,8.77
2023-04-16T09:37:31.505Z,7.30
2023-04-16T09:40:00.869Z,7.30
2023-04-16T09:42:30.918Z,6.07
2023-04-16T09:45:01.436Z,8.20
2023-04-16T09:47:41.806Z,7.43
2023-04-16T09:50:12.691Z,6.23
2023-04-16T09:52:45.550Z,5.60
2023-04-16T09:55:13.636Z,5.97
2023-04-16T09:57:41.930Z,5.23
2023-04-16T10:00:11.580Z,5.80
2023-04-16T10:02:42.798Z,5.80
2023-04-16T10:05:16.651Z,5.90
2023-04-16T10:07:46.014Z,6.33
2023-04-16T10:10:14.133Z,6.70
2023-04-16T10:12:42.341Z,7.03
2023-04-16T10:15:11.032Z,7.03
2023-04-16T10:17:39.564Z,7.03
2023-04-16T10:20:09.467Z,6.43
2023-04-16T10:22:38.027Z,7.13
2023-04-16T10:25:08.962Z,7.27
2023-04-16T10:27:38.328Z,7.33
2023-04-16T10:30:08.342Z,7.80
2023-04-16T10:32:38.112Z,7.50
2023-04-16T10:35:07.269Z,8.73
2023-04-16T10:37:35.312Z,9.23
2023-04-16T10:40:22.661Z,9.73
2023-04-16T10:42:59.629Z,9.27
2023-04-16T10:45:38.121Z,11.07
2023-04-16T10:48:08.534Z,9.03
2023-04-16T10:50:37.459Z,9.93
2023-04-16T10:53:23.734Z,8.73
2023-04-16T10:56:13.611Z,9.33
2023-04-16T10:58:43.488Z,9.60
2023-04-16T11:01:16.797Z,10.17
2023-04-16T11:03:48.070Z,10.47
2023-04-16T11:06:17.750Z,9.00
2023-04-16T11:08:54.519Z,9.30
2023-04-16T11:11:23.720Z,8.33
2023-04-16T11:13:57.326Z,10.77
2023-04-16T11:16:27.641Z,11.13
2023-04-16T11:18:57.112Z,10.77
2023-04-16T11:21:26.635Z,9.90
2023-04-16T11:23:54.859Z,10.73
2023-04-16T11:26:25.550Z,10.10
2023-04-16T11:28:55.918Z,8.53
2023-04-16T11:31:24.402Z,9.30
2023-04-16T11:33:52.350Z,8.80
2023-04-16T11:36:20.587Z,10.30
2023-04-16T11:38:48.715Z,8.83
2023-04-16T11:41:21.766Z,9.37
2023-04-16T11:43:49.766Z,9.63
2023-04-16T11:46:27.433Z,9.30
2023-04-16T11:48:56.733Z,8.93
2023-04-16T11:51:24.744Z,9.10
2023-04-16T11:53:53.995Z,9.33
2023-04-16T11:56:28.619Z,9.73
2023-04-16T11:59:12.103Z,8.87
2023-04-16T12:01:45.420Z,10.10
2023-04-16T12:04:15.271Z,9.70
2023-04-16T12:07:05.307Z,9.70
2023-04-16T12:09:36.035Z,9.20
2023-04-16T12:12:05.428Z,8.70
2023-04-16T12:14:33.808Z,8.73
2023-04-16T12:17:21.081Z,8.43
2023-04-16T12:19:52.959Z,8.20
2023-04-16T12:22:31.145Z,8.20
2023-04-16T12:25:03.863Z,8.20
2023-04-16T12:27:46.778Z,7.57
2023-04-16T12:30:16.054Z,7.47
2023-04-16T12:32:48.228Z,6.90
2023-04-16T12:35:31.312Z,7.37
2023-04-16T12:37:59.266Z,8.23
2023-04-16T12:40:27.482Z,6.53
2023-04-16T12:42:55.401Z,6.67
2023-04-16T12:45:23.679Z,6.97
2023-04-16T12:47:52.987Z,6.67
2023-04-16T12:50:20.896Z,6.60
2023-04-16T12:52:49.293Z,7.07
2023-04-16T12:55:17.311Z,7.17
2023-04-16T12:57:45.736Z,6.73
2023-04-16T13:00:14.762Z,6.70
2023-04-16T13:02:42.838Z,6.40
2023-04-16T13:05:13.101Z,6.47
2023-04-16T13:07:41.334Z,7.13
2023-04-16T13:10:10.534Z,6.53
2023-04-16T13:12:38.555Z,7.50
2023-04-16T13:15:07.165Z,7.03
2023-04-16T13:17:35.136Z,7.00
2023-04-16T13:20:03.175Z,8.00
2023-04-16T13:22:32.537Z,8.20
2023-04-16T13:25:00.541Z,8.00
2023-04-16T13:27:28.485Z,7.43
2023-04-16T13:29:56.693Z,7.17
2023-04-16T13:32:24.760Z,7.73
2023-04-16T13:34:52.711Z,7.90
2023-04-16T13:37:20.632Z,7.37
2023-04-16T13:39:49.977Z,8.03
2023-04-16T13:42:17.866Z,8.70
2023-04-16T13:44:48.781Z,8.27
2023-04-16T13:47:16.694Z,8.03
2023-04-16T13:49:44.612Z,9.17
2023-04-16T13:52:12.568Z,7.83
2023-04-16T13:54:40.588Z,7.70
2023-04-16T13:57:09.902Z,7.77
2023-04-16T13:59:37.901Z,7.80
2023-04-16T14:02:06.098Z,7.37
2023-04-16T14:04:34.076Z,6.77
2023-04-16T14:07:01.961Z,7.60
2023-04-16T14:09:29.871Z,7.30
2023-04-16T14:11:57.893Z,7.57
2023-04-16T14:14:27.290Z,7.97
2023-04-16T14:16:55.716Z,8.63
2023-04-16T14:19:23.663Z,7.93
2023-04-16T14:21:51.551Z,7.53
2023-04-16T14:24:19.442Z,7.83
2023-04-16T14:26:47.458Z,8.73
2023-04-16T14:29:15.532Z,8.43
2023-04-16T14:31:45.150Z,8.63
2023-04-16T14:34:13.120Z,8.90
2023-04-16T14:36:41.065Z,9.20
2023-04-16T14:39:09.452Z,8.90
2023-04-16T14:41:37.531Z,10.57
2023-04-16T14:44:06.804Z,9.00
2023-04-16T14:46:34.840Z,9.57
2023-04-16T14:49:04.265Z,9.43
2023-04-16T14:51:32.467Z,9.57
2023-04-16T14:54:00.421Z,10.20
2023-04-16T14:56:28.459Z,9.70
2023-04-16T14:58:56.356Z,10.03
2023-04-16T15:01:24.459Z,9.77
2023-04-16T15:03:52.694Z,9.77
2023-04-16T15:06:22.399Z,10.80
2023-04-16T15:08:50.242Z,9.63
2023-04-16T15:11:18.153Z,9.60
2023-04-16T15:13:46.211Z,9.53
2023-04-16T15:16:14.213Z,9.00
2023-04-16T15:18:42.227Z,9.60
2023-04-16T15:21:12.431Z,10.37
2023-04-16T15:23:42.145Z,10.37
2023-04-16T15:26:10.109Z,9.57
2023-04-16T15:28:37.976Z,8.87
2023-04-16T15:31:05.973Z,8.83
2023-04-16T15:33:33.870Z,9.33
2023-04-16T15:36:01.735Z,9.87
2023-04-16T15:38:30.631Z,9.00
2023-04-16T15:41:01.118Z,9.73
2023-04-16T15:43:29.944Z,8.90
2023-04-16T15:45:57.990Z,9.30
2023-04-16T15:48:25.965Z,8.50
2023-04-16T15:50:55.392Z,8.77
2023-04-16T15:53:23.593Z,9.10
2023-04-16T15:55:53.615Z,8.50
2023-04-16T15:58:23.097Z,7.83
2023-04-16T16:00:51.430Z,8.43
2023-04-16T16:03:20.181Z,8.27
2023-04-16T16:05:48.686Z,8.30
2023-04-16T16:08:16.933Z,8.10
2023-04-16T16:10:44.841Z,8.47
2023-04-16T16:13:16.027Z,8.53
2023-04-16T16:15:45.610Z,8.57
2023-04-16T16:18:13.579Z,8.40
2023-04-16T16:20:41.488Z,8.33
2023-04-16T16:23:09.442Z,8.07
2023-04-16T16:25:37.402Z,7.70
2023-04-16T16:28:06.741Z,8.43
2023-04-16T16:30:34.875Z,9.70
2023-04-16T16:33:04.312Z,8.90
2023-04-16T16:35:32.820Z,8.40
2023-04-16T16:38:01.736Z,9.67
2023-04-16T16:40:29.855Z,8.33
2023-04-16T16:42:57.872Z,9.20
2023-04-16T16:45:27.180Z,9.40
2023-04-16T16:47:55.441Z,10.20
2023-04-16T16:50:24.817Z,10.60
2023-04-16T16:52:52.728Z,10.33
2023-04-16T16:55:20.974Z,10.10
2023-04-16T16:57:49.293Z,10.00
2023-04-16T17:00:20.137Z,11.07
2023-04-16T17:02:50.153Z,10.40
2023-04-16T17:05:18.357Z,10.93
2023-04-16T17:07:47.621Z,12.43
2023-04-16T17:10:20.028Z,12.00
2023-04-16T17:12:48.338Z,11.73
2023-04-16T17:15:17.550Z,11.20
2023-04-16T17:17:47.211Z,12.03
2023-04-16T17:20:15.674Z,11.40
2023-04-16T17:22:43.883Z,11.33
2023-04-16T17:25:13.868Z,11.77
2023-04-16T17:27:42.003Z,11.17
2023-04-16T17:30:10.544Z,12.07
2023-04-16T17:32:38.518Z,12.00
2023-04-16T17:35:08.847Z,12.47
2023-04-16T17:37:36.755Z,12.60
2023-04-16T17:40:07.395Z,11.93
2023-04-16T17:42:37.153Z,11.97
2023-04-16T17:45:05.683Z,11.70
2023-04-16T17:47:35.757Z,11.77
2023-04-16T17:50:03.889Z,11.90
2023-04-16T17:52:31.903Z,16.40
2023-04-16T17:55:01.677Z,12.90
2023-04-16T17:57:29.947Z,11.53
2023-04-16T17:59:59.505Z,13.23
2023-04-16T18:02:27.582Z,11.60
2023-04-16T18:04:56.191Z,11.20
2023-04-16T18:07:24.302Z,12.07
2023-04-16T18:09:52.235Z,11.70
2023-04-16T18:12:20.220Z,11.20
2023-04-16T18:14:48.167Z,11.13
2023-04-16T18:17:17.832Z,11.30
2023-04-16T18:19:45.758Z,11.20
2023-04-16T18:22:13.696Z,12.00
2023-04-16T18:24:41.840Z,11.97
2023-04-16T18:27:09.755Z,11.87
2023-04-16T18:29:39.923Z,12.60
2023-04-16T18:32:11.826Z,12.43
2023-04-16T18:34:41.692Z,13.17
2023-04-16T18:37:09.646Z,13.47
2023-04-16T18:39:37.696Z,13.03
2023-04-16T18:42:06.114Z,11.73
2023-04-16T18:44:34.047Z,12.53
2023-04-16T18:47:02.082Z,12.90
2023-04-16T18:49:30.085Z,11.60
2023-04-16T18:51:59.504Z,13.47
2023-04-16T18:54:27.900Z,12.63
2023-04-16T18:56:56.785Z,12.30
2023-04-16T18:59:25.357Z,13.30
2023-04-16T19:01:53.424Z,13.20
2023-04-16T19:04:21.493Z,13.47
2023-04-16T19:06:49.490Z,12.63
2023-04-16T19:09:19.868Z,13.30
2023-04-16T19:11:50.381Z,14.10
2023-04-16T19:14:18.399Z,13.53
2023-04-16T19:16:46.435Z,13.87
2023-04-16T19:19:14.451Z,13.50
2023-04-16T19:21:42.365Z,13.90
2023-04-16T19:24:10.505Z,14.37
2023-04-16T19:26:39.905Z,13.57
2023-04-16T19:29:07.917Z,14.50
2023-04-16T19:31:35.900Z,14.40
2023-04-16T19:34:04.086Z,14.50
2023-04-16T19:36:32.508Z,14.33
2023-04-16T19:39:00.438Z,15.03
2023-04-16T19:41:28.333Z,14.13
2023-04-16T19:43:57.664Z,14.57
2023-04-16T19:46:25.597Z,14.23
2023-04-16T19:48:53.566Z,14.43
2023-04-16T19:51:21.544Z,14.47
2023-04-16T19:53:49.435Z,14.10
2023-04-16T19:56:17.613Z,14.07
2023-04-16T19:58:45.557Z,13.93
2023-04-16T20:01:14.933Z,14.07
2023-04-16T20:03:42.936Z,13.77
2023-04-16T20:06:10.962Z,12.70
2023-04-16T20:08:38.960Z,14.70
2023-04-16T20:11:08.409Z,14.47
2023-04-16T20:13:37.681Z,14.30
2023-04-16T20:16:08.295Z,14.00
2023-04-16T20:18:41.171Z,13.73
2023-04-16T20:21:09.386Z,14.18
2023-04-16T20:23:37.425Z,14.40
2023-04-16T20:26:05.404Z,13.93
2023-04-16T20:28:33.341Z,13.87
2023-04-16T20:31:01.322Z,14.97
2023-04-16T20:33:30.356Z,14.10
2023-04-16T20:35:59.624Z,13.93
2023-04-16T20:38:32.204Z,14.93
2023-04-16T20:41:09.844Z,14.80
2023-04-16T20:43:40.599Z,15.63
2023-04-16T20:46:09.058Z,15.73
2023-04-16T20:48:36.979Z,16.03
2023-04-16T20:51:07.736Z,15.47
2023-04-16T20:53:36.883Z,15.70
2023-04-16T20:56:04.856Z,16.80
2023-04-16T20:58:32.843Z,14.90
2023-04-16T21:01:00.723Z,14.33
2023-04-16T21:03:28.901Z,13.97
2023-04-16T21:05:57.085Z,14.63
2023-04-16T21:08:26.417Z,13.43
2023-04-16T21:10:54.322Z,14.33
2023-04-16T21:13:22.273Z,14.53
2023-04-16T21:15:50.416Z,14.40
2023-04-16T21:18:18.547Z,15.57
2023-04-16T21:20:46.572Z,14.97
2023-04-16T21:23:14.546Z,14.23
2023-04-16T21:25:43.829Z,14.57
2023-04-16T21:28:11.725Z,14.53
2023-04-16T21:30:39.656Z,15.20
2023-04-16T21:33:08.003Z,15.60
2023-04-16T21:35:35.912Z,15.13
2023-04-16T21:38:03.826Z,15.17
2023-04-16T21:40:31.736Z,17.17
2023-04-16T21:43:00.959Z,16.97
2023-04-16T21:45:30.514Z,16.77
2023-04-16T21:47:58.582Z,14.87
2023-04-16T21:50:26.641Z,14.63
2023-04-16T21:52:54.815Z,15.57
2023-04-16T21:55:22.866Z,15.37
2023-04-16T21:57:50.715Z,14.77
2023-04-16T22:00:21.241Z,16.53
2023-04-16T22:02:49.400Z,14.80
2023-04-16T22:05:17.734Z,16.60
2023-04-16T22:07:45.726Z,16.17
2023-04-16T22:10:15.150Z,17.30
2023-04-16T22:12:44.688Z,15.03
2023-04-16T22:15:13.820Z,15.13
2023-04-16T22:17:43.384Z,15.47
2023-04-16T22:20:13.242Z,15.63
2023-04-16T22:22:41.514Z,15.83
2023-04-16T22:25:10.359Z,16.47
2023-04-16T22:27:38.566Z,15.63
2023-04-16T22:30:08.266Z,16.50
2023-04-16T22:32:36.350Z,16.57
2023-04-16T22:35:06.584Z,16.47
2023-04-16T22:37:34.558Z,15.40
2023-04-16T22:40:02.507Z,16.30
2023-04-16T22:42:30.505Z,15.80
2023-04-16T22:44:58.526Z,15.97
2023-04-16T22:47:26.467Z,17.23
2023-04-16T22:49:54.409Z,17.10
2023-04-16T22:52:23.674Z,16.33
2023-04-16T22:54:51.605Z,17.13
2023-04-16T22:57:21.186Z,18.20
2023-04-16T22:59:49.167Z,17.40
2023-04-16T23:02:17.404Z,18.33
2023-04-16T23:04:45.583Z,18.60
2023-04-16T23:07:13.492Z,18.40
2023-04-16T23:09:42.856Z,17.57
2023-04-16T23:12:11.077Z,18.23
2023-04-16T23:14:39.054Z,17.93
2023-04-16T23:17:07.059Z,19.20
2023-04-16T23:19:35.009Z,17.63
2023-04-16T23:22:03.850Z,18.30
2023-04-16T23:24:31.772Z,16.27
2023-04-16T23:27:01.114Z,16.47
2023-04-16T23:29:29.122Z,17.30
2023-04-16T23:31:58.407Z,17.70
2023-04-16T23:34:26.394Z,16.87
2023-04-16T23:36:54.273Z,17.17
2023-04-16T23:39:22.143Z,17.27
2023-04-16T23:41:50.061Z,16.70
2023-04-16T23:44:19.392Z,16.87
2023-04-16T23:46:47.305Z,17.03
2023-04-16T23:49:15.295Z,16.27
2023-04-16T23:51:43.132Z,16.73
2023-04-16T23:54:11.031Z,17.13
2023-04-16T23:56:38.934Z,16.50
2023-04-16T23:59:06.861Z,17.07
